Latest Weather Observations for Salmon Gums RS

IDW60801

Issued at 6:03 am WST Saturday 2 July 2016 (issued every 30 minutes, with the page automatically refreshed every 10 minutes)

About weather observations | Map of weather stations | Latest weather observations for WA | Other Formats
Station Details ID: 012071 Name: SALMON GUMS RES.STN. Lat: -32.99 Lon: 121.62 Height: 249.0 m
Data from the previous 72 hours. | See also: Recent months at Salmon Gums RS
Date/Time
WST
Temp
°C
App
Temp
°C
Dew
Point
°C
Rel
Hum
%
Delta-T
°C
Wind Press
QNH
hPa
Press
MSL
hPa
Rain since
9am
mm
Dir  Spd
km/h
Gust
km/h
Spd
kts
Gust
kts
02/06:00am -3.0 -6.6 -3.8 94 0.1 NNW 6 7 3 4 - - 0.0
02/05:30am -2.8 -6.4 -3.6 94 0.1 NW 6 7 3 4 - - 0.0
02/05:00am -3.1 -6.3 -3.9 94 0.1 NE 4 6 2 3 - - 0.0
02/04:30am -2.8 -5.6 -3.6 94 0.1 ENE 2 4 1 2 - - 0.0
02/04:00am -2.7 -5.1 -3.5 94 0.1 CALM 0 2 0 1 - - 0.0
02/03:30am -2.5 -5.7 -3.3 94 0.2 NW 4 6 2 3 - - 0.0
02/03:00am -2.2 -5.0 -3.0 94 0.2 NW 2 4 1 2 - - 0.0
02/02:30am -2.1 -4.5 -3.1 93 0.2 CALM 0 4 0 2 - - 0.0
02/02:00am -1.9 -4.3 -2.9 93 0.2 CALM 0 0 0 0 - - 0.0
02/01:30am -1.8 -4.2 -2.8 93 0.3 CALM 0 0 0 0 - - 0.0
02/01:00am -1.5 -3.8 -2.5 93 0.3 CALM 0 0 0 0 - - 0.0
02/12:30am -1.2 -3.5 -2.2 93 0.3 CALM 0 4 0 2 - - 0.0
02/12:00am -1.4 -3.7 -2.5 92 0.3 CALM 0 0 0 0 - - 0.0
 
Date/Time
WST
Temp
°C
App
Temp
°C
Dew
Point
°C
Rel
Hum
%
Delta-T
°C
Wind Press
QNH
hPa
Press
MSL
hPa
Rain since
9am
mm
Dir  Spd
km/h
Gust
km/h
Spd
kts
Gust
kts
01/11:30pm -0.9 -3.5 -2.0 92 0.3 NW 2 4 1 2 - - 0.0
01/11:00pm -0.3 -3.2 -1.4 92 0.4 NW 4 4 2 2 - - 0.0
01/10:30pm 0.1 -2.8 -1.2 91 0.5 NW 4 4 2 2 - - 0.0
01/10:00pm 0.9 -1.9 -0.5 90 0.5 WNW 4 7 2 4 - - 0.0
01/09:30pm 1.3 -0.7 -0.3 89 0.6 CALM 0 0 0 0 - - 0.0
01/09:00pm 1.8 -0.9 0.2 89 0.6 NE 4 4 2 2 - - 0.0
01/08:30pm 2.1 -0.6 0.3 88 0.7 NE 4 6 2 3 - - 0.0
01/08:00pm 2.7 0.8 0.8 87 0.7 CALM 0 4 0 2 - - 0.0
01/07:30pm 3.4 1.6 1.3 86 0.8 CALM 0 0 0 0 - - 0.0
01/07:00pm 4.3 2.6 2.0 85 0.9 CALM 0 0 0 0 - - 0.0
01/06:30pm 5.5 3.9 2.5 81 1.2 CALM 0 0 0 0 - - 0.0
01/06:00pm 7.5 6.0 3.0 73 1.9 CALM 0 0 0 0 - - 0.0
01/05:30pm 9.6 8.3 4.0 68 2.5 CALM 0 0 0 0 - - 0.0
01/05:00pm 12.1 10.1 4.3 59 3.6 ENE 4 6 2 3 - - 0.0
01/04:30pm 14.6 12.6 4.6 51 4.7 NE 4 6 2 3 - - 0.0
01/04:00pm 15.8 13.5 4.8 48 5.2 NE 6 7 3 4 - - 0.0
01/03:30pm 16.4 14.4 4.4 45 5.7 N 4 7 2 4 - - 0.0
01/03:00pm 16.4 13.5 4.4 45 5.7 NNE 9 15 5 8 - - 0.0
01/02:30pm 16.3 13.7 4.4 45 5.7 NW 7 11 4 6 - - 0.0
01/02:00pm 16.2 13.5 3.6 43 5.9 N 7 13 4 7 - - 0.0
01/01:30pm 15.9 12.8 5.5 50 5.0 N 11 17 6 9 - - 0.0
01/01:00pm 16.0 13.6 5.3 49 5.2 NNW 7 13 4 7 - - 0.0
01/12:30pm 15.8 13.4 5.4 50 5.0 NNW 7 15 4 8 - - 0.0
01/12:00pm 15.4 12.6 5.0 50 5.0 WNW 9 15 5 8 - - 0.0
01/11:30am 15.7 13.1 6.2 53 4.7 NW 9 19 5 10 - - 0.0
01/11:00am 14.8 12.6 6.1 56 4.2 NNW 7 11 4 6 - - 0.0
01/10:30am 14.3 12.8 6.6 60 3.8 NNW 4 7 2 4 - - 0.0
01/10:00am 13.0 11.9 6.8 66 3.0 NW 2 6 1 3 - - 0.0
01/09:30am 12.0 10.7 7.5 74 2.2 NNW 4 6 2 3 - - 0.0
01/09:00am 10.1 8.2 7.5 84 1.3 NW 7 11 4 6 - - 0.0
01/08:30am 8.1 5.2 6.7 91 0.7 NW 11 13 6 7 - - 0.0
01/08:00am 6.4 3.7 5.5 94 0.4 NW 9 11 5 6 - - 0.0
01/07:30am 4.4 0.9 3.5 94 0.4 NW 11 13 6 7 - - 0.0
01/07:00am 3.7 0.1 2.7 93 0.4 NW 11 13 6 7 - - 0.0
01/06:30am 3.5 0.2 2.5 93 0.4 NW 9 11 5 6 - - 0.0
01/06:00am 4.0 0.4 3.0 93 0.4 NW 11 13 6 7 - - 0.0
01/05:30am 4.0 0.4 3.0 93 0.4 NW 11 11 6 6 - - 0.0
01/05:00am 3.9 0.6 2.7 92 0.5 NW 9 11 5 6 - - 0.0
01/04:30am 4.1 0.9 2.8 91 0.5 NW 9 11 5 6 - - 0.0
01/04:00am 4.3 1.1 3.0 91 0.5 NW 9 11 5 6 - - 0.0
01/03:30am 4.8 1.7 3.5 91 0.5 NW 9 11 5 6 - - 0.0
01/03:00am 5.0 1.9 3.5 90 0.6 NW 9 11 5 6 - - 0.0
01/02:30am 5.6 3.0 4.1 90 0.6 NW 7 9 4 5 - - 0.0
01/02:00am 5.7 2.7 4.3 91 0.6 NW 9 11 5 6 - - 0.0
01/01:30am 5.0 2.3 3.5 90 0.6 WNW 7 9 4 5 - - 0.0
01/01:00am 5.6 3.9 3.9 89 0.7 NW 2 4 1 2 - - 0.0
01/12:30am 6.8 4.9 5.0 88 0.8 NNW 4 7 2 4 - - 0.0
01/12:00am 8.4 7.1 6.0 85 1.1 W 2 6 1 3 - - 0.0
 
Date/Time
WST
Temp
°C
App
Temp
°C
Dew
Point
°C
Rel
Hum
%
Delta-T
°C
Wind Press
QNH
hPa
Press
MSL
hPa
Rain since
9am
mm
Dir  Spd
km/h
Gust
km/h
Spd
kts
Gust
kts
30/11:30pm 9.6 8.2 7.4 86 1.1 WSW 4 7 2 4 - - 0.0
30/11:00pm 9.4 8.3 6.8 84 1.2 WSW 2 4 1 2 - - 0.0
30/10:30pm 9.8 9.1 7.1 83 1.3 CALM 0 0 0 0 - - 0.0
30/10:00pm 9.7 9.0 6.8 82 1.4 CALM 0 2 0 1 - - 0.0
30/09:30pm 9.7 8.9 6.6 81 1.5 CALM 0 0 0 0 - - 0.0
30/09:00pm 9.9 8.8 6.8 81 1.5 W 2 6 1 3 - - 0.0
30/08:30pm 10.1 9.4 7.0 81 1.5 CALM 0 0 0 0 - - 0.0
30/08:00pm 10.2 9.4 6.7 79 1.7 CALM 0 2 0 1 - - 0.0
30/07:30pm 10.2 8.7 6.7 79 1.7 ESE 4 7 2 4 - - 0.0
30/07:00pm 10.9 9.7 6.6 75 2.1 NNW 2 6 1 3 - - 0.0
30/06:30pm 11.7 9.9 7.0 73 2.3 W 6 11 3 6 - - 0.0
30/06:00pm 11.8 11.0 6.5 70 2.5 CALM 0 0 0 0 - - 0.0
30/05:30pm 12.2 11.4 6.7 69 2.7 CALM 0 0 0 0 - - 0.0
30/05:00pm 13.1 12.3 6.7 65 3.1 CALM 0 0 0 0 - - 0.0
30/04:30pm 14.1 13.3 6.7 61 3.6 CALM 0 0 0 0 - - 0.0
30/04:00pm 14.9 13.3 6.5 57 4.1 SSW 4 6 2 3 - - 0.0
30/03:30pm 15.8 13.7 6.0 52 4.8 WSW 6 9 3 5 - - 0.0
30/03:00pm 15.5 13.4 5.7 52 4.8 WSW 6 9 3 5 - - 0.0
30/02:30pm 15.7 13.4 5.9 52 4.8 WNW 7 11 4 6 - - 0.0
30/02:00pm 16.2 13.0 5.2 48 5.3 W 11 15 6 8 - - 0.0
30/01:30pm 16.4 13.5 6.5 52 4.9 WSW 11 17 6 9 - - 0.0
30/01:00pm 14.5 11.8 5.8 56 4.2 W 9 13 5 7 - - 0.0
30/12:30pm 15.3 12.7 6.1 54 4.5 WSW 9 17 5 9 - - 0.0
30/12:00pm 15.0 11.4 6.6 57 4.1 SW 15 20 8 11 - - 0.0
30/11:30am 14.7 11.2 7.0 60 3.8 SW 15 24 8 13 - - 0.0
30/11:00am 13.8 10.5 6.4 61 3.6 W 13 20 7 11 - - 0.0
30/10:30am 13.1 10.7 7.1 67 2.9 WSW 9 19 5 10 - - 0.0
30/10:00am 11.4 8.5 6.7 73 2.3 W 11 15 6 8 - - 0.0
30/09:30am 10.1 6.8 6.3 77 1.8 W 13 19 7 10 - - 0.0
30/09:00am 8.9 6.3 6.3 84 1.2 WNW 9 17 5 9 - - 0.2
30/08:30am 7.2 4.5 5.8 91 0.6 WNW 9 17 5 9 - - 0.2
30/08:00am 5.7 2.8 4.7 93 0.4 NW 9 13 5 7 - - 0.2
30/07:30am 4.5 1.4 3.6 94 0.4 NW 9 13 5 7 - - 0.2
30/07:00am 4.1 0.9 3.1 93 0.4 WNW 9 13 5 7 - - 0.2
30/06:30am 4.0 1.2 3.0 93 0.4 NW 7 11 4 6 - - 0.2
30/06:00am 4.1 0.5 3.1 93 0.4 NW 11 13 6 7 - - 0.2
30/05:30am 4.2 1.0 3.2 93 0.4 NW 9 13 5 7 - - 0.2
30/05:00am 4.2 1.0 3.0 92 0.5 NW 9 13 5 7 - - 0.2
30/04:30am 4.5 1.3 3.3 92 0.5 NW 9 11 5 6 - - 0.2
30/04:00am 5.5 2.5 4.2 91 0.6 WNW 9 11 5 6 - - 0.0
30/03:30am 5.0 2.3 3.7 91 0.6 WNW 7 11 4 6 - - 0.0
30/03:00am 5.5 3.0 4.0 90 0.6 WNW 6 9 3 5 - - 0.0
30/02:30am 6.5 4.2 4.8 89 0.8 WNW 6 9 3 5 - - 0.0
30/02:00am 7.4 5.2 6.0 91 0.6 WSW 7 15 4 8 - - 0.0
30/01:30am 7.4 4.8 6.3 93 0.5 WSW 9 13 5 7 - - 0.0
30/01:00am 5.9 3.4 4.9 93 0.4 W 7 9 4 5 - - 0.0
30/12:30am 6.6 4.5 5.6 93 0.5 W 6 7 3 4 - - 0.0
30/12:00am 6.7 4.4 5.7 93 0.5 WNW 7 11 4 6 - - 0.0
 
Date/Time
WST
Temp
°C
App
Temp
°C
Dew
Point
°C
Rel
Hum
%
Delta-T
°C
Wind Press
QNH
hPa
Press
MSL
hPa
Rain since
9am
mm
Dir  Spd
km/h
Gust
km/h
Spd
kts
Gust
kts
29/11:30pm 6.3 3.9 5.3 93 0.4 WNW 7 9 4 5 - - 0.0
29/11:00pm 6.8 4.5 5.7 93 0.5 WNW 7 9 4 5 - - 0.0
29/10:30pm 6.9 4.6 5.8 93 0.5 WNW 7 9 4 5 - - 0.0
29/10:00pm 6.2 3.8 5.2 93 0.4 NW 7 9 4 5 - - 0.0
29/09:30pm 6.3 3.9 5.1 92 0.5 NW 7 9 4 5 - - 0.0
29/09:00pm 7.0 4.9 5.6 91 0.6 W 6 7 3 4 - - 0.0
29/08:30pm 8.2 6.3 6.7 90 0.7 W 6 7 3 4 - - 0.0
29/08:00pm 7.1 4.9 5.1 87 0.9 WNW 6 6 3 3 - - 0.0
29/07:30pm 8.7 6.7 6.2 84 1.2 WNW 6 6 3 3 - - 0.0
29/07:00pm 10.7 9.0 7.6 81 1.5 WSW 6 9 3 5 - - 0.0
29/06:30pm 11.5 9.7 7.8 78 1.8 SW 7 11 4 6 - - 0.0
29/06:00pm 12.5 10.6 7.4 71 2.5 SW 7 11 4 6 - - 0.0
29/05:30pm 13.9 11.2 7.2 64 3.3 SW 11 17 6 9 - - 0.0
29/05:00pm 14.9 11.8 7.2 60 3.8 SW 13 20 7 11 - - 0.0
29/04:30pm 15.5 12.2 6.2 54 4.6 W 13 22 7 12 - - 0.0
29/04:00pm 16.1 12.0 6.0 51 5.0 W 17 28 9 15 - - 0.0
29/03:30pm 16.6 13.0 6.7 52 4.9 WSW 15 24 8 13 - - 0.0
29/03:00pm 16.9 13.0 7.0 52 5.0 WSW 17 30 9 16 - - 0.0
29/02:30pm 17.2 12.7 6.1 48 5.5 WSW 19 33 10 18 - - 0.0
29/02:00pm 17.2 12.6 6.7 50 5.3 W 20 33 11 18 - - 0.0
29/01:30pm 16.6 12.0 6.4 51 5.1 W 20 33 11 18 - - 0.0
29/01:00pm 17.1 13.0 6.3 49 5.4 WSW 17 28 9 15 - - 0.0
29/12:30pm 16.9 12.5 7.3 53 4.9 W 20 32 11 17 - - 0.0
29/12:00pm 16.7 11.2 7.4 54 4.7 W 26 39 14 21 - - 0.0
29/11:30am 16.4 11.7 7.9 57 4.3 W 22 39 12 21 - - 0.0
29/11:00am 15.8 11.7 7.8 59 4.1 W 19 32 10 17 - - 0.0
29/10:30am 15.2 10.9 8.0 62 3.7 W 20 30 11 16 - - 0.0
29/10:00am 14.8 11.0 9.2 69 2.9 W 19 30 10 16 - - 0.0
29/09:30am 14.3 11.2 10.3 77 2.1 W 17 30 9 16 - - 0.0
29/09:00am 13.6 10.7 11.1 85 1.3 WNW 17 26 9 14 - - 1.4
29/08:30am 13.2 11.7 11.8 91 0.8 WNW 11 19 6 10 - - 1.4
29/08:00am 12.5 10.8 11.2 92 0.7 WNW 11 20 6 11 - - 1.4
29/07:30am 12.2 10.5 11.1 93 0.6 WNW 11 15 6 8 - - 1.4
29/07:00am 12.3 10.6 11.2 93 0.6 NW 11 17 6 9 - - 1.4
29/06:30am 12.1 10.3 10.8 92 0.7 NW 11 17 6 9 - - 1.4

Other Formats:

Comma delimited format used in spreadsheet applications
http://www.bom.gov.au/fwo/IDW60801/IDW60801.95639.axf

JavaScript Object Notation format (JSON) in row-major order
http://www.bom.gov.au/fwo/IDW60801/IDW60801.95639.json